createdAt,value
2019-03-06T00:01:59.517Z,99099.58
2019-03-06T00:04:32.863Z,99091.98
2019-03-06T00:07:10.925Z,99088.71
2019-03-06T00:09:43.290Z,99090.07
2019-03-06T00:12:16.064Z,99091.43
2019-03-06T00:14:53.599Z,99078.63
2019-03-06T00:17:34.732Z,99065.84
2019-03-06T00:20:14.178Z,99058.50
2019-03-06T00:22:48.000Z,99050.91
2019-03-06T00:25:22.205Z,99039.16
2019-03-06T00:28:01.420Z,99044.34
2019-03-06T00:36:29.071Z,99016.94
2019-03-06T00:39:19.846Z,99003.84
2019-03-06T00:42:01.212Z,99002.70
2019-03-06T00:44:34.005Z,98997.77
2019-03-06T00:47:07.222Z,98992.82
2019-03-06T00:49:51.819Z,98989.23
2019-03-06T00:52:32.994Z,98980.04
2019-03-06T00:55:10.248Z,98971.02
2019-03-06T00:57:44.929Z,98956.94
2019-03-06T01:00:19.139Z,98946.88
2019-03-06T01:02:53.374Z,98947.59
2019-03-06T01:05:56.873Z,98947.92
2019-03-06T01:08:28.828Z,98947.59
2019-03-06T01:11:15.433Z,98951.99
2019-03-06T01:13:49.473Z,98953.67
2019-03-06T01:16:23.223Z,98945.27
2019-03-06T01:18:55.422Z,98940.15
2019-03-06T01:21:26.361Z,98945.03
2019-03-06T01:23:58.936Z,98943.35
2019-03-06T01:26:34.286Z,98931.67
2019-03-06T01:29:07.058Z,98934.39
2019-03-06T01:31:40.644Z,98933.59
2019-03-06T01:34:25.015Z,98944.78
2019-03-06T01:37:05.596Z,98935.36
2019-03-06T01:40:43.691Z,98929.92
2019-03-06T01:43:24.281Z,98915.05
2019-03-06T01:45:57.326Z,98917.27
2019-03-06T01:48:30.019Z,98908.31
2019-03-06T01:51:06.002Z,98892.27
2019-03-06T01:53:41.011Z,98900.65
2019-03-06T01:56:11.927Z,98893.53
2019-03-06T01:58:46.110Z,98881.30
2019-03-06T02:01:16.876Z,98879.87
2019-03-06T02:03:46.892Z,98877.09
2019-03-06T02:06:18.581Z,98881.41
2019-03-06T02:08:57.624Z,98871.25
2019-03-06T02:11:30.332Z,98865.03
2019-03-06T02:14:02.087Z,98856.30
2019-03-06T02:16:39.340Z,98843.62
2019-03-06T02:19:13.741Z,98841.45
2019-03-06T02:21:51.213Z,98835.69
2019-03-06T02:24:28.599Z,98827.54
2019-03-06T02:29:50.639Z,98829.61
2019-03-06T02:32:28.526Z,98813.56
2019-03-06T02:35:02.394Z,98798.03
2019-03-06T02:40:15.579Z,98786.86
2019-03-06T02:42:51.187Z,98796.60
2019-03-06T02:45:24.428Z,98786.22
2019-03-06T02:48:06.104Z,98787.34
2019-03-06T02:53:17.245Z,98763.59
2019-03-06T02:55:53.449Z,98750.22
2019-03-06T02:58:31.280Z,98740.16
2019-03-06T03:01:05.408Z,98729.84
2019-03-06T03:04:17.737Z,98723.38
2019-03-06T03:06:55.407Z,98709.89
2019-03-06T03:09:26.514Z,98717.56
2019-03-06T03:12:00.686Z,98708.05
2019-03-06T03:14:46.419Z,98701.81
2019-03-06T03:17:18.842Z,98701.81
2019-03-06T03:19:50.616Z,98706.11
2019-03-06T03:25:10.779Z,98690.86
2019-03-06T03:27:47.126Z,98678.16
2019-03-06T03:30:20.540Z,98676.80
2019-03-06T03:58:57.843Z,98644.94
2019-03-06T04:01:30.517Z,98639.88
2019-03-06T04:04:00.926Z,98634.10
2019-03-06T04:06:30.661Z,98625.31
2019-03-06T04:08:59.857Z,98630.41
2019-03-06T04:11:30.989Z,98633.02
2019-03-06T04:14:00.702Z,98622.61
2019-03-06T04:16:30.742Z,98624.45
2019-03-06T04:19:02.813Z,98630.36
2019-03-06T04:21:33.419Z,98621.31
2019-03-06T04:24:06.277Z,98615.88
2019-03-06T04:26:37.279Z,98617.92
2019-03-06T04:29:08.913Z,98614.57
2019-03-06T04:31:42.206Z,98620.15
2019-03-06T04:34:15.089Z,98611.66
2019-03-06T04:36:49.518Z,98612.90
2019-03-06T04:39:25.961Z,98604.44
2019-03-06T04:42:02.672Z,98606.91
2019-03-06T04:44:33.314Z,98601.71
2019-03-06T04:47:04.371Z,98593.77
2019-03-06T04:49:37.103Z,98589.94
2019-03-06T04:52:13.619Z,98595.59
2019-03-06T04:54:45.031Z,98593.91
2019-03-06T04:57:16.575Z,98590.63
2019-03-06T04:59:48.028Z,98600.16
2019-03-06T05:02:22.387Z,98593.35
2019-03-06T05:04:56.847Z,98590.85
2019-03-06T05:07:28.556Z,98596.88
2019-03-06T05:10:00.299Z,98590.37
2019-03-06T05:12:36.145Z,98582.22
2019-03-06T05:15:07.305Z,98595.82
2019-03-06T05:24:35.295Z,98594.78
2019-03-06T05:27:05.262Z,98582.28
2019-03-06T05:29:41.295Z,98584.67
2019-03-06T05:32:24.091Z,98589.22
2019-03-06T05:34:54.892Z,98592.66
2019-03-06T05:37:35.520Z,98593.91
2019-03-06T05:40:05.356Z,98582.47
2019-03-06T05:42:38.925Z,98580.69
2019-03-06T05:45:10.190Z,98582.73
2019-03-06T05:47:43.387Z,98586.48
2019-03-06T05:50:20.237Z,98586.14
2019-03-06T05:52:51.794Z,98582.06
2019-03-06T05:55:27.003Z,98580.48
2019-03-06T05:58:05.652Z,98586.14
2019-03-06T06:00:37.262Z,98589.11
2019-03-06T06:03:10.566Z,98583.34
2019-03-06T06:05:45.527Z,98583.00
2019-03-06T06:08:16.674Z,98584.58
2019-03-06T06:10:56.014Z,98589.47
2019-03-06T06:13:31.162Z,98583.22
2019-03-06T06:16:01.670Z,98580.97
2019-03-06T06:18:32.267Z,98582.58
2019-03-06T06:21:19.585Z,98591.85
2019-03-06T06:23:58.518Z,98584.58
2019-03-06T06:26:30.635Z,98589.59
2019-03-06T06:29:02.264Z,98582.53
2019-03-06T06:31:39.317Z,98574.15
2019-03-06T06:34:09.544Z,98562.45
2019-03-06T06:36:38.838Z,98560.30
2019-03-06T06:39:09.880Z,98553.27
2019-03-06T06:41:40.322Z,98555.99
2019-03-06T06:44:13.127Z,98558.38
2019-03-06T06:46:44.557Z,98552.94
2019-03-06T06:49:14.895Z,98546.69
2019-03-06T06:58:17.015Z,98533.97
2019-03-06T07:01:08.982Z,98526.62
2019-03-06T07:04:04.755Z,98529.89
2019-03-06T07:07:40.936Z,98523.98
2019-03-06T07:10:16.278Z,98533.76
2019-03-06T07:12:55.100Z,98533.76
2019-03-06T07:15:34.233Z,98534.87
2019-03-06T07:18:10.466Z,98534.87
2019-03-06T07:20:48.915Z,98536.02
2019-03-06T07:23:31.597Z,98539.20
2019-03-06T07:26:10.053Z,98539.75
2019-03-06T07:28:46.636Z,98532.95
2019-03-06T07:31:26.957Z,98526.95
2019-03-06T07:34:01.828Z,98506.98
2019-03-06T07:36:37.430Z,98512.53
2019-03-06T07:39:14.325Z,98501.19
2019-03-06T07:42:49.643Z,98509.91
2019-03-06T07:45:33.732Z,98505.91
2019-03-06T07:48:12.251Z,98496.97
2019-03-06T07:50:56.779Z,98500.72
2019-03-06T07:53:46.741Z,98497.10
2019-03-06T07:56:22.429Z,98488.35
2019-03-06T07:58:56.339Z,98488.27
2019-03-06T08:01:28.667Z,98484.99
2019-03-06T08:04:06.732Z,98485.45
2019-03-06T08:06:38.379Z,98481.59
2019-03-06T08:09:14.253Z,98476.48
2019-03-06T08:11:48.239Z,98479.09
2019-03-06T08:14:24.398Z,98480.70
2019-03-06T08:17:01.151Z,98469.56
2019-03-06T08:19:39.257Z,98472.75
2019-03-06T08:22:21.170Z,98471.86
2019-03-06T08:24:59.516Z,98479.13
2019-03-06T08:27:33.352Z,98472.57
2019-03-06T08:30:08.972Z,98461.56
2019-03-06T08:32:52.339Z,98466.36
2019-03-06T08:35:24.354Z,98460.33
2019-03-06T08:37:57.425Z,98462.16
2019-03-06T08:40:29.805Z,98466.23
2019-03-06T08:42:59.905Z,98460.23
2019-03-06T08:45:41.817Z,98460.45
2019-03-06T08:48:18.574Z,98449.56
2019-03-06T08:51:03.317Z,98451.95
2019-03-06T08:53:41.326Z,98440.97
2019-03-06T08:56:20.361Z,98436.78
2019-03-06T08:59:05.137Z,98439.66
2019-03-06T09:01:40.064Z,98428.77
2019-03-06T09:08:33.723Z,98441.80
2019-03-06T09:11:08.576Z,98443.16
2019-03-06T09:14:15.783Z,98439.08
2019-03-06T09:17:17.698Z,98443.41
2019-03-06T09:34:25.990Z,98444.46
2019-03-06T09:37:15.211Z,98441.28
2019-03-06T09:39:50.974Z,98439.45
2019-03-06T09:42:32.396Z,98431.75
2019-03-06T09:45:25.159Z,98435.12
2019-03-06T09:48:00.798Z,98424.92
2019-03-06T09:50:53.233Z,98421.95
2019-03-06T09:53:36.664Z,98429.90
2019-03-06T09:56:14.840Z,98421.73
2019-03-06T09:59:08.610Z,98423.56
2019-03-06T10:04:27.847Z,98410.42
2019-03-06T10:07:08.762Z,98413.84
2019-03-06T10:10:57.008Z,98414.31
2019-03-06T10:13:31.770Z,98413.28
2019-03-06T10:16:08.356Z,98406.60
2019-03-06T10:18:44.328Z,98413.56
2019-03-06T10:21:14.926Z,98409.59
2019-03-06T10:23:46.170Z,98407.58
2019-03-06T10:26:23.165Z,98395.55
2019-03-06T10:29:02.157Z,98400.55
2019-03-06T10:31:38.588Z,98388.74
2019-03-06T10:34:08.912Z,98387.41
2019-03-06T10:36:43.428Z,98384.23
2019-03-06T10:39:19.388Z,98371.52
2019-03-06T10:41:52.037Z,98381.48
2019-03-06T10:44:29.481Z,98377.72
2019-03-06T10:46:56.996Z,98373.38
2019-03-06T10:49:31.278Z,98372.58
2019-03-06T10:52:05.538Z,98373.02
2019-03-06T10:54:44.672Z,98366.21
2019-03-06T10:57:11.798Z,98375.75
2019-03-06T10:59:40.761Z,98379.84
2019-03-06T11:02:11.871Z,98366.21
2019-03-06T11:04:53.209Z,98371.66
2019-03-06T11:07:23.217Z,98362.68
2019-03-06T11:09:54.454Z,98362.33
2019-03-06T11:12:26.525Z,98370.97
2019-03-06T11:15:00.772Z,98353.79
2019-03-06T11:17:37.795Z,98352.77
2019-03-06T11:20:10.437Z,98355.70
2019-03-06T11:22:42.207Z,98354.08
2019-03-06T11:25:17.697Z,98355.44
2019-03-06T11:27:50.686Z,98354.42
2019-03-06T11:30:28.058Z,98343.94
2019-03-06T11:33:00.813Z,98346.77
2019-03-06T11:41:01.096Z,98330.25
2019-03-06T11:43:38.714Z,98329.92
2019-03-06T11:46:09.153Z,98336.06
2019-03-06T11:48:41.552Z,98330.75
2019-03-06T11:51:13.705Z,98323.23
2019-03-06T11:53:43.155Z,98330.97
2019-03-06T11:56:13.284Z,98329.28
2019-03-06T11:58:44.496Z,98324.28
2019-03-06T12:01:18.610Z,98327.20
2019-03-06T12:03:50.397Z,98330.47
2019-03-06T12:06:24.792Z,98327.14
2019-03-06T12:08:55.011Z,98317.39
2019-03-06T12:11:29.821Z,98318.09
2019-03-06T12:14:02.502Z,98321.95
2019-03-06T12:16:41.669Z,98307.74
2019-03-06T12:19:08.209Z,98298.64
2019-03-06T12:21:41.006Z,98295.65
2019-03-06T12:24:13.146Z,98290.66
2019-03-06T12:26:43.322Z,98300.61
2019-03-06T12:29:17.792Z,98290.95
2019-03-06T12:31:47.187Z,98291.13
2019-03-06T12:34:16.787Z,98288.36
2019-03-06T12:36:47.324Z,98283.53
2019-03-06T12:39:22.687Z,98296.98
2019-03-06T12:41:51.870Z,98299.96
2019-03-06T12:44:27.176Z,98301.31
2019-03-06T12:46:59.498Z,98297.61
2019-03-06T12:49:32.542Z,98303.34
2019-03-06T12:52:05.336Z,98302.53
2019-03-06T12:54:41.126Z,98304.02
2019-03-06T12:57:12.206Z,98308.17
2019-03-06T12:59:45.109Z,98304.81
2019-03-06T13:02:24.615Z,98306.91
2019-03-06T13:05:08.659Z,98307.65
2019-03-06T13:07:42.177Z,98307.46
2019-03-06T13:10:15.657Z,98310.42
2019-03-06T13:15:31.617Z,98310.88
2019-03-06T13:18:12.205Z,98309.07
2019-03-06T13:20:43.009Z,98312.48
2019-03-06T13:25:48.789Z,98330.91
2019-03-06T13:28:22.190Z,98323.99
2019-03-06T13:30:57.390Z,98324.80
2019-03-06T13:33:42.149Z,98326.37
2019-03-06T13:36:13.946Z,98325.70
2019-03-06T13:38:54.719Z,98317.41
2019-03-06T13:41:21.560Z,98308.38
2019-03-06T13:43:56.297Z,98302.70
2019-03-06T13:46:26.640Z,98297.94
2019-03-06T13:48:56.724Z,98294.85
2019-03-06T13:51:29.154Z,98293.14
2019-03-06T13:54:06.616Z,98284.84
2019-03-06T13:56:39.685Z,98290.83
2019-03-06T13:59:13.343Z,98283.45
2019-03-06T14:01:47.916Z,98285.58
2019-03-06T14:04:19.185Z,98282.41
2019-03-06T14:06:53.272Z,98284.92
2019-03-06T14:09:29.523Z,98276.74
2019-03-06T14:12:05.951Z,98281.04
2019-03-06T14:14:39.638Z,98273.80
2019-03-06T14:17:12.148Z,98263.10
2019-03-06T14:19:42.576Z,98265.45
2019-03-06T14:22:13.656Z,98261.66
2019-03-06T14:24:53.156Z,98268.71
2019-03-06T14:45:05.613Z,98268.63
2019-03-06T14:47:38.494Z,98268.27
2019-03-06T14:50:11.770Z,98261.66
2019-03-06T14:52:48.075Z,98255.63
2019-03-06T14:55:19.887Z,98271.20
2019-03-06T14:57:50.788Z,98290.56
2019-03-06T15:00:20.550Z,98287.09
2019-03-06T15:02:52.919Z,98298.02
2019-03-06T15:05:23.238Z,98293.19
2019-03-06T15:07:54.983Z,98296.43
2019-03-06T15:10:25.369Z,98298.05
2019-03-06T15:13:08.563Z,98301.59
2019-03-06T15:21:11.464Z,98308.46
2019-03-06T15:23:44.163Z,98321.53
2019-03-06T15:32:13.607Z,98334.94
2019-03-06T15:37:59.043Z,98331.77
